Time;durP1;ratioP1;P1;durP2;ratioP2;P2;SDS_P1;SDS_P2;PMS_P1;PMS_P2;Temp;Humidity;BMP_temperature;BMP_pressure;BME280_temperature;BME280_humidity;BME280_pressure;Samples;Min_cycle;Max_cycle;Signal;HPM_P1;HPM_P2
2022/03/27 00:02:22;;;;;;;5.10;2.83;;;7.30;99.90;;;;;;5073404;28;20512;-88
2022/03/27 00:04:48;;;;;;;5.40;2.90;;;7.50;99.90;;;;;;5073729;28;20123;-87
2022/03/27 00:07:13;;;;;;;4.30;2.33;;;7.00;99.90;;;;;;5056119;28;20084;-88
2022/03/27 00:09:39;;;;;;;4.80;2.67;;;8.20;99.90;;;;;;5055827;28;20102;-88
2022/03/27 00:12:05;;;;;;;4.82;2.70;;;7.30;99.90;;;;;;5073393;28;20123;-87
2022/03/27 00:14:31;;;;;;;5.22;2.95;;;7.10;99.90;;;;;;5055070;28;20048;-88
2022/03/27 00:16:57;;;;;;;5.32;2.65;;;7.10;99.90;;;;;;5055074;28;20479;-88
2022/03/27 00:19:23;;;;;;;5.28;2.72;;;7.20;99.90;;;;;;5073690;28;20585;-87
2022/03/27 00:21:49;;;;;;;4.40;2.40;;;7.20;99.90;;;;;;5055200;28;20044;-88
2022/03/27 00:24:15;;;;;;;5.28;2.60;;;7.50;99.90;;;;;;5073195;28;20033;-88
2022/03/27 00:26:41;;;;;;;6.43;2.80;;;7.20;99.90;;;;;;5074521;28;20573;-88
2022/03/27 00:29:07;;;;;;;5.13;2.67;;;7.20;99.90;;;;;;5077696;28;20032;-88
2022/03/27 00:31:35;;;;;;;5.20;2.55;;;7.30;99.90;;;;;;5041705;28;20471;-87
2022/03/27 00:34:02;;;;;;;5.38;2.90;;;7.30;99.90;;;;;;5076665;28;20048;-87
2022/03/27 00:36:28;;;;;;;5.85;2.47;;;7.30;99.90;;;;;;5058393;28;20043;-88
2022/03/27 00:38:54;;;;;;;6.10;2.90;;;7.30;99.90;;;;;;5076458;28;20049;-88
2022/03/27 00:41:20;;;;;;;6.07;3.30;;;7.20;99.90;;;;;;5076449;28;20045;-88
2022/03/27 00:43:47;;;;;;;5.72;2.78;;;7.20;99.90;;;;;;5058597;28;20068;-87
2022/03/27 00:46:12;;;;;;;4.72;2.63;;;7.10;99.90;;;;;;5058892;28;20458;-88
2022/03/27 00:48:39;;;;;;;4.40;2.60;;;7.00;99.90;;;;;;5076533;28;20486;-88
2022/03/27 00:51:04;;;;;;;5.90;3.05;;;7.10;99.90;;;;;;5076014;28;20135;-88
2022/03/27 00:53:30;;;;;;;6.07;2.85;;;7.00;99.90;;;;;;5058091;28;20127;-88
2022/03/27 00:55:56;;;;;;;4.75;2.88;;;6.90;99.90;;;;;;5057948;28;20090;-87
2022/03/27 00:58:22;;;;;;;5.32;2.90;;;6.90;99.90;;;;;;5076021;28;20067;-88
2022/03/27 01:00:53;;;;;;;5.82;2.88;;;6.90;99.90;;;;;;5057843;28;20046;-87
2022/03/27 01:03:21;;;;;;;4.68;2.60;;;6.90;99.90;;;;;;5075993;28;20573;-88
2022/03/27 01:05:48;;;;;;;5.88;3.08;;;6.90;99.90;;;;;;5057911;28;20045;-88
2022/03/27 01:08:15;;;;;;;5.72;3.00;;;6.80;99.90;;;;;;5076047;28;20037;-88
2022/03/27 01:10:42;;;;;;;7.60;3.05;;;6.90;99.90;;;;;;5058099;28;20048;-87
2022/03/27 01:13:19;;;;;;;5.28;2.63;;;6.80;99.90;;;;;;5075726;28;20037;-87
2022/03/27 01:16:09;;;;;;;6.30;3.13;;;6.80;99.90;;;;;;5057664;28;20037;-87
2022/03/27 01:18:35;;;;;;;5.88;3.00;;;6.80;99.90;;;;;;5041455;28;20052;-88
2022/03/27 01:21:01;;;;;;;5.43;2.83;;;6.80;99.90;;;;;;5075778;28;20505;-87
2022/03/27 01:23:26;;;;;;;6.63;3.38;;;6.80;99.90;;;;;;5057690;28;20165;-88
2022/03/27 01:25:52;;;;;;;7.75;3.60;;;7.00;99.90;;;;;;5057380;28;20045;-88
2022/03/27 01:28:17;;;;;;;7.13;3.63;;;6.80;99.90;;;;;;5057563;28;20443;-88
2022/03/27 01:30:44;;;;;;;8.43;3.60;;;6.80;99.90;;;;;;5057808;28;20058;-87
2022/03/27 01:33:09;;;;;;;10.07;3.88;;;6.80;99.90;;;;;;5040810;28;20048;-88
2022/03/27 01:35:36;;;;;;;6.80;3.28;;;6.80;99.90;;;;;;5057578;28;20113;-88
2022/03/27 01:38:02;;;;;;;8.60;4.05;;;6.80;99.90;;;;;;5056488;28;20056;-88
2022/03/27 01:40:28;;;;;;;6.60;3.78;;;6.90;99.90;;;;;;5057088;28;20044;-88
2022/03/27 01:42:55;;;;;;;6.55;3.80;;;6.90;99.90;;;;;;5057565;28;20143;-87
2022/03/27 01:45:24;;;;;;;8.32;4.20;;;6.80;99.90;;;;;;5057203;28;20044;-88
2022/03/27 01:47:50;;;;;;;7.82;3.95;;;6.80;99.90;;;;;;5057289;28;20449;-87
2022/03/27 01:50:16;;;;;;;8.32;4.05;;;6.80;99.90;;;;;;5074953;28;20041;-88
2022/03/27 01:52:42;;;;;;;9.13;4.88;;;6.80;99.90;;;;;;5056634;28;20056;-88
2022/03/27 01:55:16;;;;;;;8.30;4.03;;;6.80;99.90;;;;;;5075109;28;20121;-88
2022/03/27 01:57:44;;;;;;;7.18;4.30;;;6.70;99.90;;;;;;5040042;28;20040;-87
2022/03/27 02:00:12;;;;;;;8.35;4.53;;;6.80;99.90;;;;;;5059285;28;20364;-87
2022/03/27 02:02:38;;;;;;;9.57;4.25;;;6.70;99.90;;;;;;5077490;28;20042;-87
2022/03/27 02:05:04;;;;;;;6.63;3.90;;;6.70;99.90;;;;;;5075576;28;20040;-88
2022/03/27 02:07:44;;;;;;;12.55;5.20;;;6.70;99.90;;;;;;5056991;28;20055;-87
2022/03/27 02:10:10;;;;;;;9.38;4.57;;;6.70;99.90;;;;;;5074826;28;20046;-88
2022/03/27 02:12:36;;;;;;;8.77;4.35;;;6.70;99.90;;;;;;5056424;28;20491;-88
2022/03/27 02:15:08;;;;;;;11.88;5.15;;;6.80;99.90;;;;;;5056849;28;20051;-87
2022/03/27 02:17:38;;;;;;;10.60;4.40;;;6.70;99.90;;;;;;5074545;28;20093;-87
2022/03/27 02:20:05;;;;;;;10.00;4.97;;;6.70;99.90;;;;;;5056635;28;20059;-88
2022/03/27 02:22:31;;;;;;;8.57;4.60;;;6.70;99.90;;;;;;5057105;28;20117;-88
2022/03/27 02:24:56;;;;;;;10.38;4.38;;;6.70;99.90;;;;;;5074719;28;20474;-87
2022/03/27 02:27:22;;;;;;;8.02;4.50;;;6.70;99.90;;;;;;5056551;28;20094;-88
2022/03/27 02:29:47;;;;;;;11.73;5.07;;;6.70;99.90;;;;;;5057462;28;20045;-88
2022/03/27 02:32:14;;;;;;;12.48;5.22;;;6.70;99.90;;;;;;5056352;28;20135;-87
2022/03/27 02:34:40;;;;;;;8.32;4.82;;;6.70;99.90;;;;;;5074451;28;20051;-87
2022/03/27 02:37:06;;;;;;;9.30;4.55;;;6.60;99.90;;;;;;5074122;28;20048;-88
2022/03/27 02:39:32;;;;;;;16.02;5.60;;;7.40;99.90;;;;;;5039673;28;20048;-88
2022/03/27 02:41:58;;;;;;;10.77;5.05;;;6.60;99.90;;;;;;5074338;28;20052;-87
2022/03/27 02:44:24;;;;;;;10.13;4.78;;;6.60;99.90;;;;;;5074264;28;20052;-87
2022/03/27 02:46:50;;;;;;;10.68;5.20;;;6.60;99.90;;;;;;5074225;28;20048;-87
2022/03/27 02:49:16;;;;;;;11.30;4.90;;;6.50;99.90;;;;;;5073765;28;20044;-87
2022/03/27 02:51:45;;;;;;;11.80;5.60;;;6.50;99.90;;;;;;5055309;28;20100;-87
2022/03/27 02:54:12;;;;;;;13.27;5.38;;;6.60;99.90;;;;;;5055870;28;20040;-88
2022/03/27 02:56:38;;;;;;;12.13;5.60;;;6.60;99.90;;;;;;5074221;28;20043;-88
2022/03/27 02:59:04;;;;;;;14.32;5.60;;;6.60;99.90;;;;;;5073946;28;20056;-88
2022/03/27 03:01:31;;;;;;;11.85;5.75;;;6.60;99.90;;;;;;5074655;28;20146;-88
2022/03/27 03:03:57;;;;;;;10.27;5.10;;;6.60;99.90;;;;;;5039505;28;20472;-88
2022/03/27 03:06:26;;;;;;;14.82;5.82;;;6.60;99.90;;;;;;5073983;28;20127;-88
2022/03/27 03:08:52;;;;;;;12.57;5.90;;;6.60;99.90;;;;;;5074049;28;20084;-87
2022/03/27 03:11:20;;;;;;;15.50;6.80;;;6.60;99.90;;;;;;5081428;28;20045;-87
2022/03/27 03:13:47;;;;;;;15.98;6.43;;;6.60;99.90;;;;;;5066278;28;20040;-88
2022/03/27 03:16:15;;;;;;;13.25;6.68;;;6.50;99.90;;;;;;5056280;28;20046;-89
2022/03/27 03:18:42;;;;;;;16.60;6.57;;;6.40;99.90;;;;;;5056523;28;20102;-88
2022/03/27 03:21:07;;;;;;;15.68;6.82;;;6.40;99.90;;;;;;5074466;28;20068;-89
2022/03/27 03:23:33;;;;;;;14.75;6.88;;;6.40;99.90;;;;;;5056506;28;20090;-88
2022/03/27 03:26:00;;;;;;;16.80;7.05;;;6.40;99.90;;;;;;5074407;28;20036;-89
2022/03/27 03:28:26;;;;;;;14.35;6.65;;;6.40;99.90;;;;;;5056158;28;20044;-89
2022/03/27 03:30:52;;;;;;;14.60;6.20;;;6.30;99.90;;;;;;5074070;28;20128;-89
2022/03/27 03:33:19;;;;;;;12.73;5.95;;;6.30;99.90;;;;;;5039167;28;20044;-88
2022/03/27 03:35:46;;;;;;;16.38;6.45;;;6.20;99.90;;;;;;5073728;28;20040;-88
2022/03/27 03:38:12;;;;;;;14.43;6.70;;;6.20;99.90;;;;;;5073657;28;20040;-88
2022/03/27 03:40:40;;;;;;;13.52;6.38;;;6.20;99.90;;;;;;5039327;28;20463;-89
2022/03/27 03:43:06;;;;;;;16.02;6.38;;;6.10;99.90;;;;;;5039062;28;20098;-88
2022/03/27 03:45:32;;;;;;;17.75;6.45;;;6.00;99.90;;;;;;5073637;28;20079;-88
2022/03/27 03:47:59;;;;;;;13.60;6.72;;;6.00;99.90;;;;;;5073841;28;20129;-89
2022/03/27 03:50:25;;;;;;;13.90;6.10;;;6.10;99.90;;;;;;5055499;28;20048;-88
2022/03/27 03:52:51;;;;;;;15.90;6.38;;;6.10;99.90;;;;;;5055251;28;20135;-89
2022/03/27 03:55:16;;;;;;;12.68;5.85;;;6.00;99.90;;;;;;5073590;28;20091;-88
2022/03/27 03:57:42;;;;;;;14.13;5.88;;;6.00;99.90;;;;;;5073461;28;20080;-88
2022/03/27 04:00:08;;;;;;;14.25;6.40;;;6.00;99.90;;;;;;5073418;28;20047;-89
2022/03/27 04:02:34;;;;;;;14.80;6.18;;;5.90;99.90;;;;;;5058286;28;20486;-89
2022/03/27 04:05:01;;;;;;;15.95;6.90;;;6.00;99.90;;;;;;5059200;28;20040;-88
2022/03/27 04:07:27;;;;;;;17.25;6.50;;;6.00;99.90;;;;;;5042326;28;20526;-88
2022/03/27 04:09:52;;;;;;;15.98;6.30;;;6.00;99.90;;;;;;5042245;28;20091;-89
2022/03/27 04:12:18;;;;;;;15.02;6.35;;;6.10;99.90;;;;;;5077135;28;20079;-89
2022/03/27 04:14:43;;;;;;;13.45;6.30;;;6.00;99.90;;;;;;5058852;28;20409;-89
2022/03/27 04:17:11;;;;;;;15.45;6.00;;;6.00;99.90;;;;;;5058875;28;20067;-88
2022/03/27 04:19:37;;;;;;;15.38;6.13;;;6.00;99.90;;;;;;5042123;28;20433;-88
2022/03/27 04:22:03;;;;;;;14.80;6.07;;;5.90;99.90;;;;;;5058598;28;20053;-88
2022/03/27 04:24:29;;;;;;;12.32;5.93;;;5.90;99.90;;;;;;5058922;28;20056;-88
2022/03/27 04:26:55;;;;;;;14.25;6.35;;;5.90;99.90;;;;;;5077044;28;20077;-89
2022/03/27 04:29:21;;;;;;;12.15;6.40;;;5.90;99.90;;;;;;5076830;28;20044;-89
2022/03/27 04:31:46;;;;;;;13.90;6.05;;;5.80;99.90;;;;;;5058994;28;20128;-88
2022/03/27 04:34:12;;;;;;;15.15;6.10;;;5.80;99.90;;;;;;5076911;28;20048;-87
2022/03/27 04:36:38;;;;;;;15.55;6.32;;;5.70;99.90;;;;;;5076735;28;20139;-88
2022/03/27 04:39:05;;;;;;;14.52;6.18;;;5.60;99.90;;;;;;5077195;28;20177;-88
2022/03/27 04:41:31;;;;;;;17.17;7.00;;;5.60;99.90;;;;;;5076697;28;20040;-89
2022/03/27 04:43:57;;;;;;;16.55;6.22;;;5.60;99.90;;;;;;5058517;28;20056;-88
2022/03/27 04:46:23;;;;;;;11.80;6.13;;;5.60;99.90;;;;;;5077132;28;20036;-88
2022/03/27 04:48:48;;;;;;;15.68;6.80;;;5.50;99.90;;;;;;5076649;28;20080;-89
2022/03/27 04:51:16;;;;;;;13.48;6.10;;;5.60;99.90;;;;;;5076799;28;20095;-88
2022/03/27 04:53:41;;;;;;;13.52;6.00;;;5.60;99.90;;;;;;5076195;28;20128;-88
2022/03/27 04:56:07;;;;;;;14.27;6.38;;;5.60;99.90;;;;;;5058270;28;20127;-88
2022/03/27 04:58:34;;;;;;;15.15;6.18;;;5.60;99.90;;;;;;5076601;28;20037;-89
2022/03/27 05:01:00;;;;;;;13.80;6.45;;;5.60;99.90;;;;;;5076348;28;20056;-89
2022/03/27 05:03:26;;;;;;;12.38;6.10;;;5.50;99.90;;;;;;5076376;28;20165;-89
2022/03/27 05:05:51;;;;;;;15.30;6.82;;;5.50;99.90;;;;;;5076134;28;20047;-89
2022/03/27 05:08:17;;;;;;;14.93;6.03;;;5.50;99.90;;;;;;5058278;28;20037;-88
2022/03/27 05:10:43;;;;;;;16.20;6.38;;;5.40;99.90;;;;;;5076291;28;20048;-88
2022/03/27 05:13:09;;;;;;;15.13;6.65;;;5.40;99.90;;;;;;5075050;28;20043;-88
2022/03/27 05:15:35;;;;;;;13.38;6.13;;;5.30;99.90;;;;;;5058093;28;20106;-89
2022/03/27 05:18:01;;;;;;;13.82;6.07;;;5.40;99.90;;;;;;5058063;28;20041;-88
2022/03/27 05:20:30;;;;;;;14.85;6.10;;;5.40;99.90;;;;;;5058067;28;20056;-89
2022/03/27 05:22:59;;;;;;;14.23;6.45;;;5.40;99.90;;;;;;5058117;28;20036;-89
2022/03/27 05:25:25;;;;;;;15.32;6.93;;;5.30;99.90;;;;;;5076152;28;20040;-88
2022/03/27 05:27:53;;;;;;;18.70;6.95;;;5.40;99.90;;;;;;5058174;28;20068;-88
2022/03/27 05:30:21;;;;;;;18.95;6.45;;;5.40;99.90;;;;;;5057489;28;20089;-88
2022/03/27 05:32:48;;;;;;;14.55;7.10;;;5.40;99.90;;;;;;5057976;28;20059;-88
2022/03/27 05:35:14;;;;;;;14.75;6.88;;;5.40;99.90;;;;;;5075440;28;20470;-88
2022/03/27 05:37:42;;;;;;;17.25;6.82;;;5.50;99.90;;;;;;5058691;28;20093;-88
2022/03/27 05:40:13;;;;;;;19.40;6.97;;;5.50;99.90;;;;;;5059370;28;20048;-88
2022/03/27 05:42:39;;;;;;;18.05;6.80;;;5.60;99.90;;;;;;5076544;28;20510;-89
2022/03/27 05:45:06;;;;;;;15.77;6.43;;;5.60;99.90;;;;;;5075589;28;20047;-89
2022/03/27 05:47:32;;;;;;;15.10;6.45;;;5.60;99.90;;;;;;5057559;28;20401;-88
2022/03/27 05:49:59;;;;;;;17.65;6.55;;;5.70;99.90;;;;;;5075257;28;20093;-88
2022/03/27 05:52:25;;;;;;;15.40;6.00;;;5.60;99.90;;;;;;5056786;28;20052;-88
2022/03/27 05:54:51;;;;;;;14.45;6.25;;;5.60;99.90;;;;;;5074930;28;20433;-88
2022/03/27 05:57:18;;;;;;;19.17;6.40;;;5.60;99.90;;;;;;5057084;28;20095;-88
2022/03/27 05:59:47;;;;;;;15.50;6.30;;;5.60;99.90;;;;;;5074761;28;20055;-89
2022/03/27 06:02:14;;;;;;;16.10;6.80;;;5.60;99.90;;;;;;5078448;28;20037;-88
2022/03/27 06:04:41;;;;;;;16.13;6.35;;;5.60;99.90;;;;;;5099015;28;20025;-86
2022/03/27 06:07:07;;;;;;;15.50;6.85;;;5.60;99.90;;;;;;5082313;28;20052;-87
2022/03/27 06:09:33;;;;;;;16.83;6.60;;;5.60;99.90;;;;;;5082497;28;20092;-85
2022/03/27 06:12:00;;;;;;;15.88;6.45;;;5.60;99.90;;;;;;5063498;28;20098;-88
2022/03/27 06:14:25;;;;;;;19.98;7.40;;;5.60;99.90;;;;;;5060494;28;20055;-88
2022/03/27 06:16:51;;;;;;;19.92;7.22;;;5.60;99.90;;;;;;5060527;28;20480;-88
2022/03/27 06:19:17;;;;;;;18.13;6.63;;;5.70;99.90;;;;;;5059192;28;20053;-88
2022/03/27 06:21:44;;;;;;;18.42;6.90;;;5.70;99.90;;;;;;5059548;28;20041;-87
2022/03/27 06:24:10;;;;;;;14.85;6.68;;;5.70;99.90;;;;;;5057696;28;20055;-88
2022/03/27 06:26:36;;;;;;;21.50;7.00;;;5.70;99.90;;;;;;5076023;28;20083;-88
2022/03/27 06:29:03;;;;;;;16.67;6.43;;;5.70;99.90;;;;;;5075652;28;20045;-88
2022/03/27 06:31:28;;;;;;;18.10;6.68;;;5.80;99.90;;;;;;5057597;28;20430;-88
2022/03/27 06:33:54;;;;;;;16.30;6.07;;;5.80;99.90;;;;;;5057536;28;20082;-88
2022/03/27 06:36:19;;;;;;;20.02;6.20;;;5.90;99.90;;;;;;5075779;28;20041;-86
2022/03/27 06:38:45;;;;;;;21.98;6.53;;;6.00;99.90;;;;;;5057639;28;20040;-88
2022/03/27 06:41:10;;;;;;;17.00;6.10;;;6.00;99.90;;;;;;5057423;28;20056;-88
2022/03/27 06:43:37;;;;;;;20.17;6.25;;;6.00;99.90;;;;;;5056735;28;20044;-88
2022/03/27 06:46:03;;;;;;;20.25;6.60;;;6.10;99.90;;;;;;5074519;28;20044;-88
2022/03/27 06:48:29;;;;;;;22.60;5.80;;;6.10;99.90;;;;;;5056437;28;20040;-88
2022/03/27 06:50:55;;;;;;;22.75;5.60;;;6.20;99.90;;;;;;5056179;28;20055;-87
2022/03/27 06:53:24;;;;;;;18.77;6.30;;;6.20;99.90;;;;;;5055827;28;20174;-88
2022/03/27 06:55:50;;;;;;;24.50;5.90;;;6.30;99.90;;;;;;5055843;28;20052;-88
2022/03/27 06:58:16;;;;;;;18.48;5.88;;;6.30;99.90;;;;;;5056062;28;20067;-89
2022/03/27 07:03:26;;;;;;;26.45;5.95;;;6.40;99.90;;;;;;5074041;28;20487;-88
2022/03/27 07:05:52;;;;;;;20.92;5.65;;;6.50;99.90;;;;;;5056209;28;20047;-88
2022/03/27 07:08:22;;;;;;;23.70;5.95;;;6.60;99.90;;;;;;5074098;28;20044;-89
2022/03/27 07:10:49;;;;;;;26.33;6.10;;;6.60;99.90;;;;;;5039197;28;20040;-89
2022/03/27 07:13:16;;;;;;;21.83;6.22;;;6.70;99.90;;;;;;5055971;28;20037;-89
2022/03/27 07:15:43;;;;;;;25.65;6.32;;;6.80;99.90;;;;;;5073937;28;20052;-89
2022/03/27 07:18:10;;;;;;;25.38;5.63;;;6.80;99.90;;;;;;5055544;28;20044;-89
2022/03/27 07:20:38;;;;;;;25.65;5.97;;;6.90;99.90;;;;;;5073762;28;20474;-89
2022/03/27 07:23:05;;;;;;;28.15;5.97;;;7.00;99.90;;;;;;5073795;28;20040;-89
2022/03/27 07:25:35;;;;;;;24.33;5.80;;;7.10;99.90;;;;;;5056008;28;20543;-89
2022/03/27 07:28:02;;;;;;;31.38;6.40;;;7.20;99.90;;;;;;5055809;28;20124;-90
2022/03/27 07:30:28;;;;;;;30.55;5.93;;;7.20;99.90;;;;;;5039457;28;20127;-89
2022/03/27 07:32:53;;;;;;;31.48;6.50;;;7.30;99.90;;;;;;5056010;28;20489;-89
2022/03/27 07:35:20;;;;;;;25.33;5.93;;;7.40;99.90;;;;;;5074117;28;20127;-88
2022/03/27 07:37:47;;;;;;;33.60;6.15;;;7.50;99.90;;;;;;5077372;28;20372;-88
2022/03/27 07:40:14;;;;;;;31.00;6.00;;;7.60;99.90;;;;;;5059908;28;20490;-89
2022/03/27 07:42:42;;;;;;;28.67;6.45;;;7.70;99.90;;;;;;5077554;28;20043;-87
2022/03/27 07:45:11;;;;;;;30.85;6.43;;;7.80;99.90;;;;;;5059929;28;20041;-87
2022/03/27 07:47:37;;;;;;;29.33;6.20;;;7.80;99.90;;;;;;5059599;28;20040;-89
2022/03/27 07:50:04;;;;;;;30.50;5.85;;;7.80;99.90;;;;;;5059578;28;20052;-89
2022/03/27 07:52:30;;;;;;;26.17;6.03;;;7.90;99.90;;;;;;5058955;28;20053;-88
2022/03/27 07:54:56;;;;;;;29.75;5.88;;;8.10;99.90;;;;;;5059245;28;20048;-88
2022/03/27 07:57:22;;;;;;;26.05;6.53;;;8.10;99.90;;;;;;5058927;28;20052;-88
2022/03/27 07:59:48;;;;;;;27.17;5.47;;;8.10;99.90;;;;;;5058979;28;20067;-88
2022/03/27 08:02:15;;;;;;;29.40;6.55;;;8.20;99.90;;;;;;5059181;28;20048;-88
2022/03/27 08:04:41;;;;;;;29.80;6.18;;;8.30;99.90;;;;;;5059940;28;20083;-89
2022/03/27 08:07:06;;;;;;;26.40;6.50;;;8.40;99.90;;;;;;5059246;28;20076;-89
2022/03/27 08:09:32;;;;;;;30.45;5.75;;;8.50;99.90;;;;;;5077327;28;20048;-89
2022/03/27 08:11:57;;;;;;;26.15;6.15;;;8.70;99.90;;;;;;5077303;28;20043;-90
2022/03/27 08:14:28;;;;;;;26.20;6.15;;;8.80;99.90;;;;;;5058914;28;20090;-89
2022/03/27 08:16:54;;;;;;;21.92;5.13;;;8.80;99.90;;;;;;5058905;28;20041;-90
2022/03/27 08:19:20;;;;;;;27.75;6.93;;;9.00;99.90;;;;;;5077074;28;20044;-90
2022/03/27 08:21:46;;;;;;;19.23;5.25;;;9.00;99.90;;;;;;5042630;28;20044;-90
2022/03/27 08:24:12;;;;;;;21.83;5.10;;;9.10;99.90;;;;;;5077064;28;20063;-88
2022/03/27 08:26:56;;;;;;;21.98;5.40;;;9.10;99.90;;;;;;5058847;28;20044;-89
2022/03/27 08:29:34;;;;;;;23.65;5.68;;;9.10;99.90;;;;;;5058766;28;20071;-89
2022/03/27 08:32:02;;;;;;;19.45;4.68;;;9.10;99.90;;;;;;5058705;28;20403;-88
2022/03/27 08:34:30;;;;;;;22.10;5.22;;;9.20;99.90;;;;;;5058285;28;20040;-89
2022/03/27 08:36:57;;;;;;;19.90;5.68;;;9.30;99.90;;;;;;5058432;28;20513;-89
2022/03/27 08:39:23;;;;;;;24.80;5.53;;;9.30;99.90;;;;;;5058408;28;20060;-88
2022/03/27 08:41:51;;;;;;;18.38;5.38;;;9.70;99.90;;;;;;5041779;28;20510;-89
2022/03/27 08:44:21;;;;;;;26.17;5.30;;;9.40;99.90;;;;;;5058575;28;20071;-88
2022/03/27 08:46:48;;;;;;;21.83;5.20;;;9.50;99.90;;;;;;5059345;28;20048;-89
2022/03/27 08:49:25;;;;;;;23.17;4.53;;;9.60;99.90;;;;;;5060154;28;20043;-88
2022/03/27 08:52:19;;;;;;;22.58;4.88;;;9.80;99.90;;;;;;5041184;28;20402;-89
2022/03/27 08:55:06;;;;;;;25.60;5.20;;;9.90;99.90;;;;;;5076161;28;20052;-89
2022/03/27 08:57:38;;;;;;;22.80;5.00;;;10.10;99.90;;;;;;5075984;28;20444;-89
2022/03/27 09:00:04;;;;;;;20.95;4.50;;;10.30;99.90;;;;;;5058023;28;20040;-89
2022/03/27 09:02:30;;;;;;;24.08;4.60;;;10.30;99.90;;;;;;5076140;28;20036;-90
2022/03/27 09:04:56;;;;;;;23.25;4.50;;;10.30;99.90;;;;;;5057936;28;20400;-89
2022/03/27 09:07:27;;;;;;;17.33;4.45;;;10.50;99.90;;;;;;5075994;28;20101;-88
2022/03/27 09:09:54;;;;;;;24.23;4.40;;;10.90;99.90;;;;;;5075913;28;20489;-89
2022/03/27 09:12:21;;;;;;;18.38;3.85;;;10.90;99.90;;;;;;5075939;28;20067;-89
2022/03/27 09:14:47;;;;;;;23.55;4.95;;;10.60;99.90;;;;;;5057777;28;20040;-90
2022/03/27 09:17:14;;;;;;;21.33;4.22;;;11.00;99.90;;;;;;5057734;28;20051;-89
2022/03/27 09:19:43;;;;;;;23.45;4.40;;;10.70;99.90;;;;;;5077570;28;20090;-89
2022/03/27 09:22:18;;;;;;;25.08;4.88;;;10.90;99.90;;;;;;5076208;28;20040;-89
2022/03/27 09:24:47;;;;;;;19.33;4.40;;;11.00;99.90;;;;;;5058033;28;20041;-89
2022/03/27 09:27:14;;;;;;;21.92;4.03;;;11.10;99.90;;;;;;5057530;28;20072;-89
2022/03/27 09:30:10;;;;;;;18.10;4.28;;;11.20;99.90;;;;;;5057546;28;20083;-89
2022/03/27 09:32:41;;;;;;;22.55;4.32;;;11.30;99.90;;;;;;5075727;28;20047;-89
2022/03/27 09:35:10;;;;;;;24.48;4.28;;;11.30;99.90;;;;;;5075435;28;20055;-89
2022/03/27 09:37:42;;;;;;;17.65;3.70;;;11.30;99.90;;;;;;5040619;28;20048;-89
2022/03/27 09:40:12;;;;;;;21.15;3.97;;;11.40;99.90;;;;;;5057374;28;20045;-88
2022/03/27 09:42:40;;;;;;;17.42;3.85;;;11.80;99.90;;;;;;5057314;28;20052;-88
2022/03/27 09:45:20;;;;;;;18.00;3.47;;;11.50;99.90;;;;;;5057548;28;20498;-88
2022/03/27 09:47:53;;;;;;;17.23;3.50;;;11.70;99.90;;;;;;5057321;28;20051;-89
2022/03/27 09:50:34;;;;;;;15.15;3.75;;;11.90;99.90;;;;;;5057287;28;20045;-89
2022/03/27 09:53:25;;;;;;;17.05;3.88;;;12.00;99.90;;;;;;5075000;28;20467;-89
2022/03/27 09:55:59;;;;;;;17.50;3.38;;;11.90;99.90;;;;;;5056938;28;20502;-88
2022/03/27 09:58:40;;;;;;;15.15;3.42;;;12.10;99.90;;;;;;5056623;28;20460;-89
2022/03/27 10:01:13;;;;;;;16.80;3.60;;;12.20;99.90;;;;;;5074822;28;20494;-89
2022/03/27 10:03:57;;;;;;;18.05;5.13;;;12.40;99.90;;;;;;5056912;28;20088;-89
2022/03/27 10:06:49;;;;;;;17.50;3.30;;;12.40;99.90;;;;;;5056619;28;20048;-88
2022/03/27 10:09:14;;;;;;;15.18;2.97;;;12.50;99.90;;;;;;5053030;28;20147;-87
2022/03/27 10:11:42;;;;;;;16.73;3.95;;;12.60;99.90;;;;;;5074856;28;20072;-88
2022/03/27 10:14:08;;;;;;;12.85;3.38;;;12.80;99.90;;;;;;5056763;28;20044;-89
2022/03/27 10:16:43;;;;;;;14.73;3.13;;;13.00;99.90;;;;;;5056907;28;20090;-88
2022/03/27 10:19:27;;;;;;;13.68;3.25;;;13.10;99.90;;;;;;5075080;28;20060;-89
2022/03/27 10:21:54;;;;;;;15.18;3.85;;;13.20;99.90;;;;;;5074916;28;20033;-88
2022/03/27 10:24:23;;;;;;;15.27;3.63;;;13.30;99.90;;;;;;5056541;28;20367;-89
2022/03/27 10:26:49;;;;;;;19.35;3.85;;;13.40;99.90;;;;;;5074887;28;20045;-89
2022/03/27 10:29:15;;;;;;;13.27;3.58;;;13.40;99.90;;;;;;5056281;28;20101;-88
2022/03/27 10:31:42;;;;;;;15.25;3.42;;;13.40;99.90;;;;;;5039620;28;20052;-88
2022/03/27 10:34:11;;;;;;;14.02;3.40;;;13.70;99.90;;;;;;5039523;28;20045;-89
2022/03/27 10:37:05;;;;;;;17.98;4.32;;;13.70;99.90;;;;;;5075013;28;20083;-89
2022/03/27 10:39:57;;;;;;;19.25;4.47;;;13.90;99.90;;;;;;5074856;28;20095;-89
2022/03/27 10:42:46;;;;;;;14.57;3.95;;;14.00;99.90;;;;;;4974256;28;20082;-88
2022/03/27 10:45:19;;;;;;;13.82;3.13;;;14.30;99.90;;;;;;4974850;28;20054;-88
2022/03/27 10:48:14;;;;;;;12.10;3.08;;;14.20;99.90;;;;;;4966816;28;20031;-88
2022/03/27 10:50:54;;;;;;;19.67;4.50;;;14.20;99.90;;;;;;4982259;28;20031;-88
2022/03/27 10:53:22;;;;;;;10.88;3.10;;;14.50;99.90;;;;;;4958411;28;20055;-88
2022/03/27 10:55:51;;;;;;;14.60;3.70;;;14.60;99.90;;;;;;4961888;28;20508;-89
2022/03/27 10:58:37;;;;;;;11.70;3.53;;;14.50;99.90;;;;;;4974588;28;20062;-88
2022/03/27 11:01:09;;;;;;;12.45;3.17;;;14.60;99.90;;;;;;4973669;28;20078;-88
2022/03/27 11:03:48;;;;;;;12.98;2.72;;;14.80;99.90;;;;;;4956877;28;20046;-89
2022/03/27 11:06:22;;;;;;;11.52;3.17;;;14.70;97.60;;;;;;4973824;28;20134;-89
2022/03/27 11:08:52;;;;;;;10.70;3.17;;;14.80;92.60;;;;;;4973328;28;20058;-88
2022/03/27 11:11:36;;;;;;;13.07;3.15;;;14.90;90.60;;;;;;4972440;28;20058;-89
2022/03/27 11:14:07;;;;;;;11.90;3.70;;;15.10;92.20;;;;;;4973174;28;20146;-89
2022/03/27 11:16:36;;;;;;;13.38;3.25;;;15.10;94.40;;;;;;4973142;28;20079;-89
2022/03/27 11:19:02;;;;;;;13.55;3.20;;;15.00;95.40;;;;;;4994841;28;20065;-89
2022/03/27 11:21:28;;;;;;;14.93;3.50;;;15.30;96.90;;;;;;5055443;28;20090;-89
2022/03/27 11:23:55;;;;;;;14.07;3.75;;;15.30;94.50;;;;;;5055785;28;20053;-89
2022/03/27 11:26:20;;;;;;;13.25;2.85;;;15.40;95.70;;;;;;5055817;28;20044;-89
2022/03/27 11:29:03;;;;;;;9.23;2.50;;;15.60;97.00;;;;;;5055694;28;20055;-88
2022/03/27 11:31:32;;;;;;;10.68;3.00;;;15.70;91.50;;;;;;5055844;28;20044;-89
2022/03/27 11:34:14;;;;;;;11.77;2.88;;;15.80;91.80;;;;;;5056096;28;20056;-90
2022/03/27 11:37:13;;;;;;;11.30;3.05;;;15.90;83.00;;;;;;5058990;28;20556;-89
2022/03/27 11:39:40;;;;;;;10.77;2.75;;;16.00;83.30;;;;;;5039304;28;20045;-89
2022/03/27 11:42:30;;;;;;;11.88;3.15;;;16.10;87.70;;;;;;5055974;28;20062;-89
2022/03/27 11:45:11;;;;;;;11.68;2.90;;;16.30;85.20;;;;;;5055978;28;20123;-88
2022/03/27 11:47:40;;;;;;;10.43;2.45;;;16.30;79.40;;;;;;5074639;28;20036;-90
2022/03/27 11:50:07;;;;;;;9.02;2.47;;;16.30;80.40;;;;;;5074093;28;20052;-88
2022/03/27 11:52:34;;;;;;;11.00;2.70;;;16.40;80.50;;;;;;5055476;28;20052;-88
2022/03/27 11:55:11;;;;;;;9.75;2.55;;;16.60;81.00;;;;;;5055951;28;20495;-90
2022/03/27 11:57:48;;;;;;;11.00;2.65;;;16.80;78.80;;;;;;5073703;28;20053;-90
2022/03/27 12:00:16;;;;;;;11.32;2.40;;;16.80;79.50;;;;;;5074387;28;20041;-89
2022/03/27 12:02:44;;;;;;;10.88;2.75;;;16.80;77.00;;;;;;5055459;28;20109;-89
2022/03/27 12:05:11;;;;;;;9.38;2.65;;;17.10;78.40;;;;;;5055600;28;20386;-89
2022/03/27 12:07:55;;;;;;;12.77;3.20;;;17.20;77.90;;;;;;5055337;28;20044;-89
2022/03/27 12:10:21;;;;;;;10.85;2.45;;;17.40;75.80;;;;;;5078008;28;20425;-89
2022/03/27 12:13:07;;;;;;;8.68;2.35;;;17.40;77.80;;;;;;5074157;28;20048;-89
2022/03/27 12:15:49;;;;;;;12.05;2.58;;;17.50;75.80;;;;;;5073342;28;20501;-90
2022/03/27 12:18:33;;;;;;;8.43;2.42;;;17.60;73.40;;;;;;5055328;28;20044;-88
2022/03/27 12:21:04;;;;;;;10.50;2.28;;;17.50;72.30;;;;;;5055368;28;20045;-89
2022/03/27 12:23:38;;;;;;;8.25;2.47;;;17.50;71.90;;;;;;5041483;28;20044;-89
2022/03/27 12:32:07;;;;;;;10.68;2.40;;;17.70;68.60;;;;;;5077790;28;20083;-89
2022/03/27 12:34:38;;;;;;;10.40;2.72;;;17.80;70.40;;;;;;5058796;28;20059;-88
2022/03/27 12:37:23;;;;;;;8.98;2.67;;;17.80;70.20;;;;;;5059048;28;20120;-89
2022/03/27 12:39:49;;;;;;;8.80;2.20;;;17.80;69.00;;;;;;5077022;28;20044;-88
2022/03/27 12:42:34;;;;;;;12.35;2.78;;;18.00;69.30;;;;;;5058663;28;20429;-87
2022/03/27 12:45:23;;;;;;;10.27;2.42;;;18.10;67.10;;;;;;5058341;28;20051;-89
2022/03/27 12:47:58;;;;;;;9.52;2.20;;;18.20;66.30;;;;;;5077930;28;20040;-87
2022/03/27 12:50:34;;;;;;;10.05;2.70;;;18.20;68.10;;;;;;5077368;28;20071;-88
2022/03/27 12:53:00;;;;;;;9.80;3.05;;;18.50;69.90;;;;;;5080424;28;20067;-88
2022/03/27 12:55:40;;;;;;;11.68;2.40;;;18.60;67.20;;;;;;5060543;28;20044;-88
2022/03/27 12:58:05;;;;;;;8.48;2.55;;;18.60;66.40;;;;;;5077167;28;20051;-89
2022/03/27 13:00:33;;;;;;;8.93;2.60;;;18.70;66.50;;;;;;5076923;28;20040;-88
2022/03/27 13:03:09;;;;;;;8.20;2.35;;;18.60;66.40;;;;;;5068058;28;20056;-88
2022/03/27 13:05:34;;;;;;;9.30;2.33;;;18.80;66.10;;;;;;5085584;28;20045;-88